EGUN

RAF Mildenhall Airport

Mildenhall, United Kingdom
METAR EGUN 211256Z AUTO 24006KT 9999 SCT047 SCT055 26/13 A2992 RMK AO2 SLP135 T02610132 $
Observed Flight Rules
Jul-21 @ 12:56 UTC (47 minutes ago) Visual Flight Rules
Wind Visibility Clouds
240° at 6 knots 10,000+ meters
  • Scattered at 4,700' AGL
  • Scattered at 5,500' AGL
Temperatures Readings
Current 26°C / 79°F
Dewpoint 13°C / 55°F
Humidity 45%
Altimeter 29.92" Hg
Pressure 1013.5 hPa
Elevation 10
METAR EGUN 211256Z AUTO 24006KT 9999 SCT047 SCT055 26/13 A2992 RMK AO2 SLP135 T02610132 $
Observed Flight Rules
Jul-21 @ 12:56 UTC
(47 minutes ago)
VFR
Wind Visibility
240° at 6 knots 10,000+ meters
Clouds
  • Scattered at 4,700' AGL
  • Scattered at 5,500' AGL
Temperature Dewpoint
26°C / 79°F 13°C / 55°F
Humidity Altimeter Pressure
45% 29.92" Hg 1013.5 hPa